Time;durP1;ratioP1;P1;durP2;ratioP2;P2;SDS_P1;SDS_P2;PMS_P1;PMS_P2;Temp;Humidity;BMP_temperature;BMP_pressure;BME280_temperature;BME280_humidity;BME280_pressure;Samples;Min_cycle;Max_cycle;Signal;HPM_P1;HPM_P2
2022/10/20 00:00:30;;;;;;;7.47;5.30;;;6.70;99.90;;;;;;5076538;28;20696;-77
2022/10/20 00:02:56;;;;;;;5.85;4.93;;;6.70;99.90;;;;;;5076524;28;20214;-76
2022/10/20 00:05:23;;;;;;;11.75;6.50;;;6.70;99.90;;;;;;5076561;28;20263;-77
2022/10/20 00:07:51;;;;;;;8.45;5.40;;;6.90;99.90;;;;;;5076487;28;20206;-77
2022/10/20 00:10:18;;;;;;;5.97;4.70;;;7.20;99.90;;;;;;5076434;28;20206;-78
2022/10/20 00:12:44;;;;;;;7.60;5.20;;;7.00;99.90;;;;;;5076388;28;20198;-77
2022/10/20 00:15:11;;;;;;;5.72;4.70;;;7.10;99.90;;;;;;5076365;28;20202;-77
2022/10/20 00:17:38;;;;;;;5.38;4.88;;;6.60;99.90;;;;;;5075979;28;20218;-77
2022/10/20 00:20:05;;;;;;;4.50;4.20;;;7.10;99.90;;;;;;5075858;28;20203;-76
2022/10/20 00:22:32;;;;;;;6.68;5.47;;;6.50;99.90;;;;;;5076044;28;20214;-77
2022/10/20 00:25:00;;;;;;;6.47;4.50;;;6.80;99.90;;;;;;5076209;28;20673;-78
2022/10/20 00:27:27;;;;;;;7.25;4.95;;;;;;;;;;5076418;28;20198;-78
2022/10/20 00:29:54;;;;;;;5.10;4.60;;;6.80;99.90;;;;;;5075893;28;20206;-78
2022/10/20 00:32:20;;;;;;;7.05;4.80;;;7.30;99.90;;;;;;5075692;28;20223;-77
2022/10/20 00:34:47;;;;;;;6.20;5.57;;;7.30;99.90;;;;;;5076076;28;20256;-77
2022/10/20 00:37:14;;;;;;;7.97;5.30;;;6.90;99.90;;;;;;5075745;28;20230;-77
2022/10/20 00:39:40;;;;;;;7.53;4.70;;;6.80;99.90;;;;;;5075956;28;20374;-78
2022/10/20 00:42:14;;;;;;;5.20;4.70;;;7.30;99.90;;;;;;5076025;28;20226;-77
2022/10/20 00:44:51;;;;;;;5.53;4.80;;;7.30;99.90;;;;;;5075671;28;20198;-78
2022/10/20 00:47:21;;;;;;;9.45;5.20;;;7.10;99.90;;;;;;5075979;28;20186;-77
2022/10/20 00:49:50;;;;;;;6.80;5.30;;;6.70;99.90;;;;;;5075490;28;20214;-77
2022/10/20 00:52:20;;;;;;;4.40;4.05;;;6.90;99.90;;;;;;5075533;28;20257;-78
2022/10/20 00:54:47;;;;;;;4.90;4.50;;;6.80;99.90;;;;;;5076032;28;20256;-77
2022/10/20 00:57:16;;;;;;;5.15;4.65;;;6.70;99.90;;;;;;5075697;28;20276;-78
2022/10/20 00:59:43;;;;;;;4.88;4.18;;;6.60;99.90;;;;;;5075553;28;20209;-77
2022/10/20 01:02:11;;;;;;;6.80;4.63;;;6.80;99.90;;;;;;5075290;28;20226;-78
2022/10/20 01:04:38;;;;;;;6.55;4.60;;;6.60;99.90;;;;;;5075883;28;20285;-77
2022/10/20 01:07:05;;;;;;;5.20;4.70;;;7.50;99.90;;;;;;5075753;28;20199;-77
2022/10/20 01:09:32;;;;;;;4.93;4.50;;;6.70;99.90;;;;;;5075655;28;20625;-77
2022/10/20 01:12:14;;;;;;;5.63;4.57;;;7.00;99.90;;;;;;5075708;28;20236;-77
2022/10/20 01:14:50;;;;;;;5.47;4.38;;;6.50;99.90;;;;;;5075694;28;20244;-77
2022/10/20 01:17:26;;;;;;;5.03;4.20;;;6.70;99.90;;;;;;5075773;28;20673;-77
2022/10/20 01:20:22;;;;;;;4.72;4.03;;;6.50;99.90;;;;;;5075344;28;20198;-78
2022/10/20 01:23:10;;;;;;;4.47;4.07;;;5.60;99.90;;;;;;5073467;28;20211;-77
2022/10/20 01:25:51;;;;;;;5.65;4.60;;;6.50;99.90;;;;;;5075274;28;20183;-77
2022/10/20 01:28:22;;;;;;;4.53;3.60;;;6.60;99.90;;;;;;5075394;28;20190;-77
2022/10/20 01:30:57;;;;;;;5.30;4.80;;;6.40;99.90;;;;;;5075683;28;20218;-77
2022/10/20 01:33:32;;;;;;;3.80;3.50;;;6.70;99.90;;;;;;5075074;28;20656;-77
2022/10/20 01:36:05;;;;;;;3.83;3.42;;;6.30;99.90;;;;;;5075542;28;20194;-76
2022/10/20 01:38:38;;;;;;;4.72;3.85;;;6.20;99.90;;;;;;5075495;28;20206;-76
2022/10/20 01:41:11;;;;;;;3.70;3.38;;;6.50;99.90;;;;;;5075146;28;20324;-76
2022/10/20 01:43:43;;;;;;;4.78;3.72;;;6.70;99.90;;;;;;5075686;28;20187;-78
2022/10/20 01:46:11;;;;;;;8.18;4.45;;;6.50;99.90;;;;;;5075387;28;20210;-77
2022/10/20 01:48:39;;;;;;;4.18;3.78;;;6.50;99.90;;;;;;5075590;28;20248;-77
2022/10/20 01:51:07;;;;;;;5.22;4.18;;;6.40;99.90;;;;;;5075213;28;20222;-77
2022/10/20 01:53:33;;;;;;;4.13;3.80;;;6.50;99.90;;;;;;5075253;28;20199;-77
2022/10/20 01:56:01;;;;;;;10.00;3.85;;;6.60;99.90;;;;;;5074918;28;20236;-77
2022/10/20 01:58:57;;;;;;;5.10;4.18;;;6.40;99.90;;;;;;5074758;28;20351;-77
2022/10/20 02:01:37;;;;;;;4.30;3.90;;;6.30;99.90;;;;;;5071823;28;20234;-77
2022/10/20 02:04:07;;;;;;;4.95;4.35;;;6.00;99.90;;;;;;5075609;28;20193;-78
2022/10/20 02:06:42;;;;;;;7.78;4.57;;;5.50;99.90;;;;;;5075641;28;20209;-78
2022/10/20 02:09:17;;;;;;;4.50;4.07;;;6.20;99.90;;;;;;5075127;28;20186;-77
2022/10/20 02:11:49;;;;;;;7.75;4.28;;;6.10;99.90;;;;;;5074760;28;20225;-77
2022/10/20 02:14:18;;;;;;;3.95;3.55;;;6.00;99.90;;;;;;5077735;28;20638;-77
2022/10/20 02:16:50;;;;;;;4.05;3.67;;;6.20;99.90;;;;;;5078636;28;20621;-77
2022/10/20 02:19:22;;;;;;;4.95;3.60;;;6.20;99.90;;;;;;5078845;28;20218;-77
2022/10/20 02:21:49;;;;;;;4.60;3.40;;;6.10;99.90;;;;;;5078558;28;20229;-77
2022/10/20 02:24:18;;;;;;;5.22;4.05;;;6.10;99.90;;;;;;5078486;28;20205;-78
2022/10/20 02:26:45;;;;;;;5.10;3.88;;;6.00;99.90;;;;;;5078331;28;20202;-77
2022/10/20 02:29:14;;;;;;;4.35;3.97;;;6.10;99.90;;;;;;5076715;28;20264;-77
2022/10/20 02:31:42;;;;;;;4.70;4.28;;;6.10;99.90;;;;;;5075087;28;20261;-77
2022/10/20 02:34:11;;;;;;;4.38;3.95;;;5.70;99.90;;;;;;5075320;28;20210;-77
2022/10/20 02:36:40;;;;;;;5.40;3.40;;;5.80;99.90;;;;;;5074805;28;20205;-77
2022/10/20 02:39:07;;;;;;;4.95;3.35;;;6.00;99.90;;;;;;5074436;28;20214;-77
2022/10/20 02:41:34;;;;;;;7.03;3.42;;;6.30;99.90;;;;;;5074090;28;20226;-77
2022/10/20 02:44:00;;;;;;;4.10;3.15;;;6.00;99.90;;;;;;5074233;28;20209;-77
2022/10/20 02:46:27;;;;;;;4.18;3.75;;;6.00;99.90;;;;;;5074126;28;20206;-77
2022/10/20 02:48:54;;;;;;;4.07;3.67;;;5.90;99.90;;;;;;5074231;28;20571;-77
2022/10/20 02:51:22;;;;;;;5.07;4.43;;;6.10;99.90;;;;;;5073931;28;20237;-78
2022/10/20 02:53:48;;;;;;;3.88;3.47;;;5.60;99.90;;;;;;5074421;28;20256;-78
2022/10/20 02:56:15;;;;;;;4.70;3.50;;;;;;;;;;5074274;28;20232;-77
2022/10/20 02:58:42;;;;;;;6.00;3.35;;;6.00;99.90;;;;;;5073720;28;20229;-76
2022/10/20 03:01:09;;;;;;;3.33;3.05;;;5.90;99.90;;;;;;5099509;22;20648;-83
2022/10/20 03:03:35;;;;;;;3.83;3.50;;;6.10;99.90;;;;;;5080903;28;20582;-82
2022/10/20 03:06:08;;;;;;;4.75;4.35;;;5.40;99.90;;;;;;5078464;28;20213;-82
2022/10/20 03:08:36;;;;;;;5.10;4.00;;;5.70;99.90;;;;;;5077660;28;20193;-83
2022/10/20 03:11:03;;;;;;;4.43;3.67;;;5.80;99.90;;;;;;5078591;28;20225;-83
2022/10/20 03:13:30;;;;;;;4.22;3.83;;;5.70;99.90;;;;;;5078450;28;20201;-83
2022/10/20 03:15:56;;;;;;;8.60;4.03;;;5.70;99.90;;;;;;5079180;28;20209;-82
2022/10/20 03:18:23;;;;;;;5.32;4.47;;;5.60;99.90;;;;;;5084304;28;20222;-82
2022/10/20 03:20:51;;;;;;;4.88;3.42;;;5.50;99.90;;;;;;5080857;28;20567;-82
2022/10/20 03:23:17;;;;;;;4.03;3.55;;;5.70;99.90;;;;;;5078608;28;20258;-82
2022/10/20 03:25:46;;;;;;;3.75;3.45;;;5.50;99.90;;;;;;5079097;28;20290;-82
2022/10/20 03:28:12;;;;;;;4.25;3.85;;;5.50;99.90;;;;;;5079103;28;20232;-82
2022/10/20 03:30:39;;;;;;;3.92;3.50;;;5.80;99.90;;;;;;5078399;28;20213;-83
2022/10/20 03:33:07;;;;;;;4.35;3.50;;;5.60;99.90;;;;;;5081178;28;20201;-82
2022/10/20 03:35:33;;;;;;;5.40;3.17;;;5.60;99.90;;;;;;5092439;28;20249;-81
2022/10/20 03:38:00;;;;;;;4.22;3.80;;;5.80;99.90;;;;;;5083151;28;20258;-82
2022/10/20 03:40:27;;;;;;;6.78;3.55;;;5.50;99.90;;;;;;5079713;28;20254;-82
2022/10/20 03:42:55;;;;;;;5.88;3.40;;;5.70;99.90;;;;;;5079013;28;20216;-82
2022/10/20 03:45:21;;;;;;;4.75;3.65;;;5.50;99.90;;;;;;5077321;28;20209;-82
2022/10/20 03:47:51;;;;;;;4.40;3.85;;;5.70;99.90;;;;;;5077019;28;20213;-82
2022/10/20 03:50:18;;;;;;;4.28;3.58;;;5.60;99.90;;;;;;5077070;28;20255;-82
2022/10/20 03:52:45;;;;;;;4.57;3.80;;;;;;;;;;5079623;28;20221;-83
2022/10/20 03:55:11;;;;;;;3.67;3.28;;;5.80;99.90;;;;;;5078064;28;20568;-83
2022/10/20 03:57:38;;;;;;;5.60;4.15;;;5.70;99.90;;;;;;5077691;28;20202;-83
2022/10/20 04:00:07;;;;;;;4.22;3.50;;;5.50;99.90;;;;;;5077576;28;20458;-83
2022/10/20 04:02:37;;;;;;;4.25;3.85;;;5.90;99.90;;;;;;5077207;28;20236;-83
2022/10/20 04:05:05;;;;;;;4.70;3.90;;;5.60;99.90;;;;;;5077788;28;20190;-82
2022/10/20 04:07:32;;;;;;;4.63;3.95;;;5.40;99.90;;;;;;5080227;28;20202;-82
2022/10/20 04:10:01;;;;;;;3.53;3.22;;;5.60;99.90;;;;;;5082416;28;20216;-82
2022/10/20 04:12:27;;;;;;;5.68;3.60;;;5.60;99.90;;;;;;5078563;28;20240;-82
2022/10/20 04:14:54;;;;;;;7.90;4.13;;;5.30;99.90;;;;;;5077100;28;20210;-82
2022/10/20 04:17:22;;;;;;;5.72;4.10;;;5.90;99.90;;;;;;5080377;28;20210;-82
2022/10/20 04:19:49;;;;;;;4.75;4.35;;;5.60;99.90;;;;;;5081269;28;20240;-82
2022/10/20 04:22:16;;;;;;;6.55;4.03;;;5.30;99.90;;;;;;5087148;28;20230;-82
2022/10/20 04:24:43;;;;;;;4.55;3.80;;;5.50;99.90;;;;;;5081101;28;20296;-81
2022/10/20 04:27:10;;;;;;;3.70;3.20;;;5.50;99.90;;;;;;5080975;28;20210;-80
2022/10/20 04:29:36;;;;;;;6.82;4.18;;;5.60;99.90;;;;;;5081065;28;20209;-81
2022/10/20 04:32:03;;;;;;;4.32;3.92;;;5.40;99.90;;;;;;5082374;28;20231;-82
2022/10/20 04:34:32;;;;;;;5.82;4.45;;;5.40;99.90;;;;;;5092865;28;20201;-80
2022/10/20 04:36:58;;;;;;;5.40;4.30;;;5.40;99.90;;;;;;5098108;28;20192;-81
2022/10/20 04:39:25;;;;;;;4.32;3.75;;;5.60;99.90;;;;;;5095625;28;20450;-82
2022/10/20 04:41:52;;;;;;;4.72;4.30;;;5.40;99.90;;;;;;5085334;28;20238;-82
2022/10/20 04:44:18;;;;;;;4.55;3.55;;;5.30;99.90;;;;;;5082471;28;20233;-82
2022/10/20 04:46:45;;;;;;;6.63;4.93;;;5.30;99.90;;;;;;5081773;28;20214;-82
2022/10/20 04:49:12;;;;;;;5.30;4.22;;;5.30;99.90;;;;;;5082941;28;20205;-82
2022/10/20 04:51:40;;;;;;;3.85;3.55;;;5.20;99.90;;;;;;5086260;28;20221;-83
2022/10/20 04:54:06;;;;;;;7.90;4.13;;;5.20;99.90;;;;;;5085500;28;20205;-82
2022/10/20 04:56:33;;;;;;;4.95;4.50;;;5.20;99.90;;;;;;5098386;28;20230;-81
2022/10/20 04:59:00;;;;;;;4.70;3.70;;;4.90;99.90;;;;;;5098977;28;20218;-80
2022/10/20 05:01:29;;;;;;;5.80;4.97;;;5.00;99.90;;;;;;5087536;28;20233;-81
2022/10/20 05:03:57;;;;;;;9.52;4.75;;;5.40;99.90;;;;;;5088870;28;20254;-82
2022/10/20 05:06:25;;;;;;;8.23;5.88;;;5.10;99.90;;;;;;5081524;28;20239;-82
2022/10/20 05:08:55;;;;;;;6.60;3.95;;;5.00;99.90;;;;;;5080844;28;20225;-83
2022/10/20 05:11:24;;;;;;;5.22;3.95;;;5.50;99.90;;;;;;5089565;28;20222;-82
2022/10/20 05:13:50;;;;;;;4.30;3.75;;;5.10;99.90;;;;;;5098271;28;20210;-80
2022/10/20 05:16:18;;;;;;;4.97;4.07;;;5.10;99.90;;;;;;5098930;28;20205;-80
2022/10/20 05:18:45;;;;;;;4.95;3.95;;;5.00;99.90;;;;;;5098387;28;20224;-80
2022/10/20 05:21:14;;;;;;;4.90;4.40;;;5.20;99.90;;;;;;5097504;28;20283;-82
2022/10/20 05:23:42;;;;;;;4.63;3.92;;;5.10;99.90;;;;;;5081764;28;20643;-82
2022/10/20 05:26:12;;;;;;;9.07;5.25;;;5.50;99.90;;;;;;5081456;28;20202;-82
2022/10/20 05:28:39;;;;;;;4.63;4.22;;;4.80;99.90;;;;;;5079486;28;20185;-82
2022/10/20 05:31:08;;;;;;;5.65;4.57;;;5.00;99.90;;;;;;5080496;28;20227;-82
2022/10/20 05:33:35;;;;;;;8.77;7.72;;;4.90;99.90;;;;;;5081068;28;20204;-81
2022/10/20 05:36:07;;;;;;;6.78;4.05;;;5.00;99.90;;;;;;5081757;28;20249;-82
2022/10/20 05:38:35;;;;;;;7.15;5.18;;;5.20;99.90;;;;;;5081325;28;20211;-82
2022/10/20 05:41:05;;;;;;;7.50;4.50;;;4.90;99.90;;;;;;5082804;28;20638;-81
2022/10/20 05:43:33;;;;;;;4.95;4.45;;;4.90;99.90;;;;;;5099152;28;20200;-82
2022/10/20 05:46:00;;;;;;;6.00;4.60;;;4.90;99.90;;;;;;5099233;28;20205;-82
2022/10/20 05:48:27;;;;;;;10.30;5.13;;;4.90;99.90;;;;;;5091399;28;20204;-82
2022/10/20 05:50:53;;;;;;;4.85;4.35;;;4.90;99.90;;;;;;5081375;28;20232;-82
2022/10/20 05:53:21;;;;;;;5.97;4.65;;;;;;;;;;5090953;28;20207;-81
2022/10/20 05:55:48;;;;;;;7.40;5.32;;;4.90;99.90;;;;;;5091743;28;20198;-82
2022/10/20 05:58:14;;;;;;;7.75;5.13;;;4.90;99.90;;;;;;5090959;28;20666;-82
2022/10/20 06:00:51;;;;;;;8.88;5.50;;;4.80;99.90;;;;;;5087086;28;20235;-82
2022/10/20 06:03:18;;;;;;;14.18;5.90;;;4.90;99.90;;;;;;5085098;28;20213;-82
2022/10/20 06:05:44;;;;;;;7.57;6.25;;;5.00;99.90;;;;;;5081813;28;20226;-82
2022/10/20 06:08:11;;;;;;;10.70;6.22;;;4.90;99.90;;;;;;5084689;28;20547;-82
2022/10/20 06:10:38;;;;;;;10.75;6.22;;;4.90;99.90;;;;;;5084977;28;20659;-81
2022/10/20 06:13:05;;;;;;;13.77;5.00;;;;;;;;;;5085548;28;20209;-80
2022/10/20 06:15:32;;;;;;;7.05;5.57;;;5.00;99.90;;;;;;5096056;28;20204;-81
2022/10/20 06:18:00;;;;;;;5.75;5.18;;;5.40;99.90;;;;;;5092427;28;20209;-82
2022/10/20 06:20:27;;;;;;;8.63;6.07;;;4.90;99.90;;;;;;5082132;28;20254;-81
2022/10/20 06:22:53;;;;;;;6.22;5.43;;;5.00;99.90;;;;;;5078469;28;20205;-82
2022/10/20 06:25:20;;;;;;;6.40;5.80;;;5.20;99.90;;;;;;5081312;28;20731;-82
2022/10/20 06:27:47;;;;;;;20.30;8.00;;;5.00;99.90;;;;;;5083783;28;20650;-81
2022/10/20 06:30:13;;;;;;;7.85;6.13;;;5.10;99.90;;;;;;5078144;28;20197;-82
2022/10/20 06:32:40;;;;;;;12.55;6.65;;;5.30;99.90;;;;;;5077686;28;20723;-81
2022/10/20 06:35:08;;;;;;;7.53;6.68;;;5.10;99.90;;;;;;5077819;28;20205;-81
2022/10/20 06:37:35;;;;;;;11.75;7.15;;;5.60;99.90;;;;;;5078618;28;20554;-82
2022/10/20 06:40:02;;;;;;;8.45;6.70;;;5.40;99.90;;;;;;5078255;28;20225;-82
2022/10/20 06:42:28;;;;;;;9.73;6.68;;;5.50;99.90;;;;;;5077308;28;20226;-82
2022/10/20 06:44:57;;;;;;;12.20;6.97;;;;;;;;;;5082404;28;20265;-81
2022/10/20 06:47:24;;;;;;;11.57;6.70;;;5.60;99.90;;;;;;5095113;28;20215;-82
2022/10/20 06:49:50;;;;;;;7.07;6.25;;;5.50;99.90;;;;;;5092857;28;20224;-82
2022/10/20 06:52:18;;;;;;;7.95;7.15;;;5.50;99.90;;;;;;5082508;28;20230;-82
2022/10/20 06:54:45;;;;;;;11.70;6.43;;;5.60;99.90;;;;;;5086199;28;20213;-82
2022/10/20 06:57:12;;;;;;;8.00;5.72;;;5.70;99.90;;;;;;5084571;28;20216;-82
2022/10/20 06:59:38;;;;;;;9.48;6.30;;;5.70;99.90;;;;;;5080129;28;20227;-83
2022/10/20 07:02:05;;;;;;;8.82;6.88;;;5.70;99.90;;;;;;5078251;28;20229;-83
2022/10/20 07:04:32;;;;;;;10.70;7.60;;;5.80;99.90;;;;;;5078182;28;20208;-82
2022/10/20 07:06:58;;;;;;;8.80;6.85;;;5.90;99.90;;;;;;5077860;28;20214;-83
2022/10/20 07:09:26;;;;;;;14.75;8.93;;;5.90;99.90;;;;;;5077947;28;20206;-82
2022/10/20 07:11:53;;;;;;;8.30;7.43;;;6.20;99.90;;;;;;5077428;28;20256;-80
2022/10/20 07:14:20;;;;;;;9.55;6.35;;;6.00;99.90;;;;;;5077001;28;20231;-81
2022/10/20 07:16:47;;;;;;;13.32;7.68;;;5.90;99.90;;;;;;5076792;28;20209;-83
2022/10/20 07:19:13;;;;;;;11.05;7.57;;;5.90;99.90;;;;;;5077085;28;20275;-83
2022/10/20 07:21:40;;;;;;;10.93;7.18;;;6.00;99.90;;;;;;5077083;28;20225;-81
2022/10/20 07:24:08;;;;;;;13.57;9.60;;;6.00;99.90;;;;;;5078019;28;20215;-82
2022/10/20 07:26:39;;;;;;;12.85;8.25;;;6.20;99.90;;;;;;5078209;28;20644;-82
2022/10/20 07:29:06;;;;;;;13.82;7.07;;;6.50;99.90;;;;;;5078745;28;20197;-83
2022/10/20 07:31:35;;;;;;;11.00;7.80;;;6.30;99.90;;;;;;5085321;28;20225;-81
2022/10/20 07:34:03;;;;;;;9.88;7.07;;;6.40;99.90;;;;;;5093952;28;20217;-81
2022/10/20 07:36:32;;;;;;;11.45;7.85;;;6.50;99.90;;;;;;5097271;28;20202;-80
2022/10/20 07:39:00;;;;;;;9.13;6.72;;;6.50;99.90;;;;;;5095581;28;20239;-79
2022/10/20 07:41:28;;;;;;;12.23;7.72;;;6.70;99.90;;;;;;5088829;28;20241;-83
2022/10/20 07:43:56;;;;;;;8.93;7.35;;;6.80;99.90;;;;;;5080555;28;20572;-82
2022/10/20 07:46:23;;;;;;;14.52;7.75;;;6.80;99.90;;;;;;5078307;28;20206;-82
2022/10/20 07:48:50;;;;;;;11.07;6.72;;;7.00;99.90;;;;;;5077949;28;20217;-82
2022/10/20 07:51:25;;;;;;;10.75;8.27;;;7.10;99.90;;;;;;5078020;28;20241;-82
2022/10/20 07:53:53;;;;;;;12.65;6.80;;;7.60;99.90;;;;;;5078956;28;20639;-80
2022/10/20 07:56:20;;;;;;;10.55;6.53;;;7.30;99.90;;;;;;5081638;28;20206;-81
2022/10/20 07:58:47;;;;;;;12.05;8.15;;;7.80;92.00;;;;;;5079702;28;20261;-81
2022/10/20 08:01:15;;;;;;;8.70;6.57;;;8.00;7.90;;;;;;5079610;28;20234;-81
2022/10/20 08:03:42;;;;;;;10.27;7.07;;;7.60;1.00;;;;;;5080429;28;20198;-82
2022/10/20 08:06:08;;;;;;;13.05;7.28;;;8.40;1.00;;;;;;5079536;28;20206;-80
2022/10/20 08:08:35;;;;;;;7.93;6.05;;;7.90;99.90;;;;;;5080092;28;20669;-81
2022/10/20 08:11:03;;;;;;;14.35;7.20;;;8.20;99.90;;;;;;5084512;28;20280;-81
2022/10/20 08:13:29;;;;;;;12.02;7.10;;;8.20;1.00;;;;;;5082304;28;20221;-81
2022/10/20 08:15:56;;;;;;;15.18;9.40;;;8.40;1.00;;;;;;5081027;28;20206;-81
2022/10/20 08:18:24;;;;;;;9.07;6.10;;;8.50;1.00;;;;;;5084022;28;20202;-82
2022/10/20 08:20:51;;;;;;;10.45;6.70;;;8.60;1.00;;;;;;5083850;28;20222;-81
2022/10/20 08:23:18;;;;;;;11.80;7.00;;;8.70;1.00;;;;;;5082136;28;20202;-81
2022/10/20 08:25:44;;;;;;;6.70;6.03;;;8.70;47.70;;;;;;5081446;28;20209;-81
2022/10/20 08:28:11;;;;;;;9.57;6.47;;;8.90;99.90;;;;;;5081008;28;20449;-81
2022/10/20 08:30:38;;;;;;;10.82;6.18;;;9.20;1.00;;;;;;5082190;28;20476;-81
2022/10/20 08:33:05;;;;;;;5.65;5.15;;;9.00;99.90;;;;;;5082513;28;20202;-82
2022/10/20 08:35:33;;;;;;;8.07;6.50;;;10.10;1.00;;;;;;5082045;28;20207;-83
2022/10/20 08:38:00;;;;;;;8.97;6.17;;;9.00;99.90;;;;;;5082916;28;20449;-82
2022/10/20 08:40:30;;;;;;;6.50;5.87;;;9.30;1.00;;;;;;5082548;28;20487;-82
2022/10/20 08:42:57;;;;;;;6.20;5.63;;;9.60;99.90;;;;;;5081365;28;20456;-82
2022/10/20 08:45:26;;;;;;;10.97;7.13;;;9.40;1.00;;;;;;5081363;28;20427;-81
2022/10/20 08:47:55;;;;;;;8.60;5.90;;;9.40;1.00;;;;;;5080790;28;20502;-81
2022/10/20 08:50:26;;;;;;;6.53;5.17;;;9.40;1.00;;;;;;5082484;28;20444;-82
2022/10/20 08:52:57;;;;;;;8.23;6.33;;;9.10;1.00;;;;;;5094584;28;20411;-81
2022/10/20 08:55:27;;;;;;;7.30;6.33;;;9.40;1.00;;;;;;5095249;28;20420;-81
2022/10/20 10:17:54;;;;;;;6.03;5.20;;;11.50;1.00;;;;;;5081858;28;20526;-82
2022/10/20 10:20:34;;;;;;;4.67;4.03;;;11.50;99.90;;;;;;5085908;28;20455;-82
2022/10/20 10:23:16;;;;;;;8.40;4.30;;;11.80;99.90;;;;;;5082404;28;20436;-82
2022/10/20 10:25:42;;;;;;;7.83;4.33;;;11.70;99.90;;;;;;5087693;28;20463;-83
2022/10/20 10:28:30;;;;;;;5.50;4.90;;;11.50;99.90;;;;;;5084469;28;20433;-82
2022/10/20 10:31:09;;;;;;;4.23;3.80;;;11.90;99.90;;;;;;5083495;28;20427;-82
2022/10/20 10:33:38;;;;;;;3.93;3.63;;;12.00;99.90;;;;;;5080982;28;20435;-82
2022/10/20 10:36:11;;;;;;;6.50;3.90;;;12.00;99.90;;;;;;5080413;28;20470;-82
2022/10/20 10:38:38;;;;;;;6.10;4.40;;;12.10;99.90;;;;;;5079810;28;20422;-82
2022/10/20 10:41:16;;;;;;;7.40;4.57;;;12.30;1.00;;;;;;5080981;28;20480;-82
2022/10/20 10:43:53;;;;;;;5.00;3.70;;;12.00;99.90;;;;;;5079350;28;20514;-82
2022/10/20 10:46:25;;;;;;;4.63;3.77;;;12.60;1.00;;;;;;5077548;28;20411;-82
2022/10/20 10:49:27;;;;;;;5.20;4.50;;;11.80;99.90;;;;;;5077707;28;20439;-82
2022/10/20 10:52:02;;;;;;;5.10;3.80;;;12.20;99.90;;;;;;5068965;28;20456;-83
2022/10/20 10:54:47;;;;;;;5.73;3.90;;;12.00;99.90;;;;;;5078239;28;20428;-82
2022/10/20 10:57:24;;;;;;;3.60;3.30;;;12.00;99.90;;;;;;5078933;28;20431;-81
2022/10/20 10:59:52;;;;;;;7.03;3.90;;;12.10;99.90;;;;;;5081888;28;20459;-81
2022/10/20 11:02:58;;;;;;;7.97;4.33;;;12.10;1.00;;;;;;5080241;28;20926;-81
2022/10/20 11:05:39;;;;;;;4.67;3.93;;;12.30;1.00;;;;;;5079176;28;20760;-82
2022/10/20 11:08:17;;;;;;;6.10;4.20;;;12.00;99.90;;;;;;5079749;28;20432;-84
2022/10/20 11:10:51;;;;;;;4.33;3.93;;;12.30;99.90;;;;;;5084531;28;20428;-84
2022/10/20 11:13:25;;;;;;;4.10;3.77;;;12.40;99.90;;;;;;5083438;28;20474;-84
2022/10/20 11:16:09;;;;;;;5.10;3.37;;;12.90;1.00;;;;;;5082990;28;20949;-82
2022/10/20 11:19:07;;;;;;;3.50;3.20;;;13.10;99.90;;;;;;5088295;28;20448;-81
2022/10/20 11:21:46;;;;;;;5.83;3.57;;;12.50;99.90;;;;;;5087058;28;20448;-83
2022/10/20 11:24:32;;;;;;;4.30;3.57;;;12.40;99.90;;;;;;5079617;28;20419;-81
2022/10/20 11:27:03;;;;;;;9.93;3.10;;;12.40;59.90;;;;;;5078956;28;20410;-82
2022/10/20 11:29:36;;;;;;;4.67;3.60;;;13.40;34.30;;;;;;5084297;28;20801;-81
2022/10/20 11:32:11;;;;;;;4.17;3.60;;;12.70;22.40;;;;;;5084153;28;20429;-82
2022/10/20 11:34:45;;;;;;;8.13;4.40;;;12.70;21.50;;;;;;5084718;28;20968;-81
2022/10/20 11:37:21;;;;;;;3.47;3.17;;;12.70;5.50;;;;;;5082450;28;20429;-80
2022/10/20 11:39:55;;;;;;;3.80;3.50;;;12.80;1.00;;;;;;5082405;28;20437;-80
2022/10/20 11:42:30;;;;;;;4.63;3.10;;;13.00;1.00;;;;;;5082618;28;20460;-79
2022/10/20 11:44:59;;;;;;;4.80;2.60;;;13.00;1.00;;;;;;5080674;28;20440;-79
2022/10/20 11:47:32;;;;;;;3.47;2.90;;;13.60;1.00;;;;;;5080512;28;20848;-80
2022/10/20 11:49:59;;;;;;;6.60;2.50;;;13.00;1.00;;;;;;5081732;28;20847;-80
2022/10/20 11:53:01;;;;;;;3.40;2.83;;;13.10;1.00;;;;;;5081374;28;20510;-79
2022/10/20 11:55:48;;;;;;;3.00;2.80;;;13.10;1.00;;;;;;5081849;28;20478;-80
2022/10/20 11:58:31;;;;;;;3.37;2.97;;;13.10;1.00;;;;;;5081265;28;20448;-80
2022/10/20 12:01:17;;;;;;;10.63;4.33;;;13.20;1.00;;;;;;5079603;28;20999;-80
2022/10/20 12:04:13;;;;;;;6.70;4.27;;;13.50;99.90;;;;;;5080254;28;20472;-80
2022/10/20 12:06:58;;;;;;;7.90;3.20;;;13.30;1.00;;;;;;5081776;28;20436;-80
2022/10/20 12:09:44;;;;;;;8.40;4.10;;;13.20;1.00;;;;;;5082464;28;20437;-81
2022/10/20 12:12:15;;;;;;;4.10;3.10;;;13.40;99.90;;;;;;5081178;28;20890;-81
2022/10/20 12:14:43;;;;;;;3.80;2.63;;;13.40;99.90;;;;;;5081530;28;20443;-81
2022/10/20 12:17:20;;;;;;;3.30;3.00;;;13.40;1.00;;;;;;5081328;28;20794;-81
2022/10/20 12:19:50;;;;;;;9.30;4.60;;;13.20;99.90;;;;;;5080915;28;20444;-82
2022/10/20 12:22:42;;;;;;;7.23;3.23;;;13.80;99.90;;;;;;5084156;28;20504;-82
2022/10/20 12:25:23;;;;;;;3.63;2.93;;;13.50;1.00;;;;;;5081762;28;20448;-82
2022/10/20 12:28:40;;;;;;;4.63;2.77;;;13.50;1.00;;;;;;5083453;28;20500;-81
2022/10/20 12:31:07;;;;;;;3.63;3.33;;;13.60;1.00;;;;;;5088138;28;20460;-82
2022/10/20 12:33:59;;;;;;;3.77;2.80;;;14.10;1.00;;;;;;5087343;28;20475;-81
2022/10/20 12:36:31;;;;;;;3.40;3.10;;;13.90;99.90;;;;;;5085933;28;20418;-82
2022/10/20 12:39:20;;;;;;;6.20;2.77;;;13.40;1.00;;;;;;5083810;28;20444;-82
2022/10/20 12:41:58;;;;;;;3.07;2.87;;;13.40;99.90;;;;;;5082661;28;20481;-82
2022/10/20 12:44:28;;;;;;;7.20;3.50;;;13.30;99.90;;;;;;5082859;28;20468;-82
2022/10/20 12:46:59;;;;;;;7.03;3.37;;;14.00;1.00;;;;;;5084575;28;20490;-82
2022/10/20 12:49:31;;;;;;;4.33;3.10;;;13.60;1.00;;;;;;5089845;28;20447;-84
2022/10/20 12:51:59;;;;;;;8.00;4.10;;;13.80;1.00;;;;;;5089706;28;20448;-80
2022/10/20 12:54:33;;;;;;;3.70;3.00;;;14.00;99.90;;;;;;5084905;28;20472;-82
2022/10/20 12:57:03;;;;;;;4.67;3.90;;;13.80;99.90;;;;;;5088756;28;20429;-80
2022/10/20 12:59:39;;;;;;;3.77;3.30;;;13.40;99.90;;;;;;5081840;28;20539;-81
2022/10/20 13:02:50;;;;;;;4.73;3.23;;;13.80;99.90;;;;;;5079342;28;20475;-80
2022/10/20 13:05:43;;;;;;;5.03;3.00;;;13.70;1.00;;;;;;5079291;28;20937;-80
2022/10/20 13:08:32;;;;;;;4.80;3.07;;;13.90;99.90;;;;;;5080460;28;20435;-80
2022/10/20 13:11:33;;;;;;;4.50;2.87;;;13.80;99.90;;;;;;5079290;28;20399;-81
2022/10/20 13:14:13;;;;;;;3.60;2.73;;;13.40;99.90;;;;;;5079929;28;20468;-80
2022/10/20 13:16:44;;;;;;;3.07;2.87;;;13.60;99.90;;;;;;5080421;28;20437;-82
2022/10/20 13:19:15;;;;;;;3.20;2.90;;;13.70;99.90;;;;;;5080626;28;20434;-81
2022/10/20 13:21:42;;;;;;;3.83;3.13;;;14.00;99.90;;;;;;5083743;28;20850;-81
2022/10/20 13:24:16;;;;;;;4.40;3.30;;;13.90;99.90;;;;;;5084059;28;20518;-80
2022/10/20 13:26:49;;;;;;;3.23;2.73;;;13.60;99.90;;;;;;5080413;28;20796;-81
2022/10/20 13:29:26;;;;;;;4.40;3.40;;;13.70;1.00;;;;;;5079275;28;20520;-81
2022/10/20 13:32:04;;;;;;;5.40;3.40;;;13.80;99.90;;;;;;5079188;28;20498;-80
2022/10/20 13:34:38;;;;;;;4.43;4.07;;;13.90;99.90;;;;;;5079070;28;20478;-80
2022/10/20 13:37:15;;;;;;;4.13;3.77;;;13.70;99.90;;;;;;5090934;28;20429;-80
2022/10/20 13:39:53;;;;;;;6.50;3.13;;;13.70;1.00;;;;;;5086877;28;20898;-80
2022/10/20 13:42:45;;;;;;;3.43;2.73;;;13.80;99.90;;;;;;5080988;28;20891;-82
2022/10/20 13:45:22;;;;;;;4.30;3.23;;;13.70;1.00;;;;;;5081226;28;20429;-81
2022/10/20 13:47:51;;;;;;;4.97;4.33;;;13.80;99.90;;;;;;5079530;28;20425;-81
2022/10/20 13:50:21;;;;;;;10.73;4.23;;;13.90;99.90;;;;;;5079139;28;20449;-81
2022/10/20 13:52:51;;;;;;;5.23;4.43;;;14.00;99.90;;;;;;5078798;28;20469;-81
2022/10/20 13:55:21;;;;;;;4.57;4.17;;;13.70;1.00;;;;;;5079991;28;20602;-80
2022/10/20 13:57:52;;;;;;;3.33;3.00;;;13.50;1.00;;;;;;5080383;28;20437;-81
2022/10/20 14:00:22;;;;;;;4.40;3.50;;;13.60;1.00;;;;;;5080983;28;20734;-83
2022/10/20 14:02:57;;;;;;;4.20;3.23;;;13.20;99.90;;;;;;5079746;28;20467;-82
2022/10/20 14:05:25;;;;;;;4.10;3.70;;;13.20;99.90;;;;;;5081203;28;20535;-82
2022/10/20 14:07:52;;;;;;;4.47;3.33;;;;;;;;;;5078409;28;20448;-82
2022/10/20 14:10:25;;;;;;;3.93;3.03;;;13.10;99.90;;;;;;5078959;28;20457;-82
2022/10/20 14:12:53;;;;;;;4.43;3.47;;;13.20;99.90;;;;;;5078342;28;20489;-82
2022/10/20 14:15:28;;;;;;;4.33;3.43;;;13.50;1.00;;;;;;5078363;28;20961;-82
2022/10/20 14:18:02;;;;;;;4.33;3.93;;;13.50;1.00;;;;;;5078801;28;20442;-81
2022/10/20 14:20:31;;;;;;;4.57;3.67;;;13.60;99.90;;;;;;5078236;28;20459;-82
2022/10/20 14:22:59;;;;;;;3.50;2.80;;;13.50;99.90;;;;;;5081253;28;20485;-81
2022/10/20 14:25:28;;;;;;;4.13;3.20;;;13.40;1.00;;;;;;5080724;28;20449;-81
2022/10/20 14:27:56;;;;;;;4.77;3.20;;;13.40;99.90;;;;;;5080211;28;20483;-81
2022/10/20 14:30:25;;;;;;;3.87;2.80;;;13.30;99.90;;;;;;5079248;28;20440;-82
2022/10/20 14:32:53;;;;;;;2.90;2.57;;;13.70;99.90;;;;;;5078879;28;20465;-82
2022/10/20 14:35:25;;;;;;;6.80;3.50;;;13.00;99.90;;;;;;5078885;28;20471;-80